Latest Weather Observations for Coolangatta

IDQ60901

Issued at 5:01 am EST Wednesday 31 August 2016 (issued every 10 minutes, with the page automatically refreshed every 10 minutes)

About weather observations | Map of Brisbane area stations | Latest observations for Brisbane area | Other Formats
Station Details ID: 040717 Name: COOLANGATTA Lat: -28.17 Lon: 153.51 Height: 4.0 m
Data from the previous 72 hours. | See also: Recent months at Coolangatta
Date/Time
EST
Temp
°C
App
Temp
°C
Dew
Point
°C
Rel
Hum
%
Delta-T
°C
Wind Press
QNH
hPa
Press
MSL
hPa
Rain since
9am
mm
Dir  Spd
km/h
Gust
km/h
Spd
kts
Gust
kts
31/05:00am 11.3 11.5 10.4 94 0.5 CALM 0 0 0 0 1024.7 1024.7 0.0
31/04:30am 12.0 11.2 11.2 95 0.4 WSW 6 7 3 4 1025.0 1025.0 0.0
31/04:00am 11.3 11.5 10.4 94 0.5 CALM 0 0 0 0 1024.5 1024.5 0.0
31/03:30am 11.8 11.3 10.9 94 0.5 WSW 4 7 2 4 1024.6 1024.6 0.0
31/03:00am 12.6 12.1 12.0 96 0.3 WSW 6 9 3 5 1024.8 1024.8 0.0
31/02:30am 11.6 10.7 10.5 93 0.6 WSW 6 7 3 4 1025.0 1025.0 0.0
31/02:00am 12.2 11.8 11.1 93 0.6 SW 4 7 2 4 1025.6 1025.6 0.0
31/01:30am 12.5 11.9 11.6 94 0.5 SW 6 7 3 4 1025.8 1025.8 0.0
31/01:00am 12.6 12.2 11.2 91 0.7 SW 4 7 2 4 1026.0 1026.0 0.0
31/12:30am 13.0 12.4 11.6 91 0.7 WSW 6 7 3 4 1026.4 1026.4 0.0
31/12:00am 12.9 13.3 11.3 90 0.8 CALM 0 6 0 3 1026.5 1026.5 0.0
 
Date/Time
EST
Temp
°C
App
Temp
°C
Dew
Point
°C
Rel
Hum
%
Delta-T
°C
Wind Press
QNH
hPa
Press
MSL
hPa
Rain since
9am
mm
Dir  Spd
km/h
Gust
km/h
Spd
kts
Gust
kts
30/11:30pm 13.1 12.9 11.7 91 0.7 WSW 4 7 2 4 1026.5 1026.5 0.0
30/11:00pm 12.9 12.9 11.1 89 0.9 SW 2 7 1 4 1026.8 1026.8 0.0
30/10:30pm 13.4 13.5 11.5 88 1.0 SW 2 7 1 4 1027.0 1027.0 0.0
30/10:00pm 13.6 13.0 11.8 89 1.0 WSW 6 9 3 5 1027.4 1027.4 0.0
30/09:30pm 13.8 12.7 11.8 88 1.1 WSW 9 11 5 6 1027.5 1027.5 0.0
30/09:00pm 13.7 12.9 11.0 84 1.4 WSW 6 7 3 4 1027.5 1027.5 0.0
30/08:30pm 14.4 13.9 11.9 85 1.3 WSW 6 7 3 4 1027.6 1027.6 0.0
30/08:00pm 14.4 13.0 12.3 87 1.1 WSW 11 15 6 8 1027.5 1027.5 0.0
30/07:30pm 14.6 13.5 12.1 85 1.4 WSW 9 11 5 6 1027.2 1027.2 0.0
30/07:00pm 15.5 14.8 11.9 79 1.9 WSW 7 9 4 5 1027.0 1027.0 0.0
30/06:30pm 17.5 16.0 10.4 63 3.8 NNE 9 13 5 7 1026.8 1026.8 0.0
30/06:00pm 18.9 17.0 10.5 58 4.5 NE 11 15 6 8 1026.4 1026.4 0.0
30/05:30pm 19.1 17.0 9.9 55 4.9 NNE 11 15 6 8 1026.3 1026.3 0.0
30/05:00pm 19.5 17.1 10.2 55 5.0 NE 13 15 7 8 1026.4 1026.4 0.0
30/04:30pm 20.3 18.0 10.4 53 5.4 ENE 13 17 7 9 1026.4 1026.4 0.0
30/04:00pm 20.6 18.2 10.1 51 5.6 ENE 13 17 7 9 1026.5 1026.5 0.0
30/03:30pm 20.6 18.2 10.1 51 5.7 NE 13 19 7 10 1026.4 1026.4 0.0
30/03:00pm 20.9 18.3 10.7 52 5.5 NE 15 24 8 13 1026.5 1026.5 0.0
30/02:30pm 21.4 19.0 11.4 53 5.5 NE 15 20 8 11 1026.7 1026.7 0.0
30/02:00pm 21.4 18.7 11.7 54 5.4 ENE 17 20 9 11 1026.8 1026.8 0.0
30/01:30pm 21.3 18.7 10.8 51 5.8 NE 15 26 8 14 1026.9 1026.9 0.0
30/01:00pm 21.7 18.7 10.5 49 6.1 ENE 17 22 9 12 1027.2 1027.2 0.0
30/12:30pm 22.0 18.8 11.4 51 5.9 NE 19 24 10 13 1027.6 1027.6 0.0
30/12:00pm 22.0 19.5 11.1 50 6.0 NE 15 20 8 11 1028.0 1028.0 0.0
30/11:30am 22.0 19.1 11.1 50 6.0 ENE 17 26 9 14 1028.3 1028.3 0.0
30/11:00am 21.8 18.7 10.3 48 6.2 ENE 17 22 9 12 1028.9 1028.9 0.0
30/10:30am 21.9 19.1 11.3 51 5.9 ENE 17 24 9 13 1029.2 1029.2 0.0
30/10:00am 21.4 18.4 10.6 50 5.9 ENE 17 22 9 12 1029.4 1029.4 0.0
30/09:30am 21.3 19.0 11.9 55 5.3 ESE 15 20 8 11 1029.2 1029.2 0.0
30/09:00am 20.4 18.8 12.9 62 4.2 SE 13 17 7 9 1028.9 1028.9 0.0
30/08:30am 19.3 18.4 13.7 70 3.2 SSE 11 13 6 7 1029.2 1029.2 0.0
30/08:00am 16.9 18.3 14.4 85 1.4 CALM 0 0 0 0 1029.0 1029.0 0.0
30/07:30am 15.3 15.3 13.5 89 1.0 SSW 6 9 3 5 1028.5 1028.5 0.0
30/07:00am 13.5 13.2 12.6 94 0.5 SSW 6 7 3 4 1027.7 1027.7 0.0
30/06:30am 12.9 12.8 12.0 94 0.5 SW 4 7 2 4 1027.3 1027.3 0.0
30/06:00am 13.1 13.8 12.2 94 0.5 CALM 0 6 0 3 1026.7 1026.7 0.0
30/05:30am 13.3 13.7 12.4 94 0.5 S 2 6 1 3 1026.3 1026.3 0.0
30/05:00am 13.2 13.5 12.3 94 0.5 WSW 2 7 1 4 1025.9 1025.9 0.0
30/04:30am 13.5 14.2 12.2 92 0.7 CALM 0 0 0 0 1025.5 1025.5 0.0
30/04:00am 14.1 13.8 12.7 91 0.8 SSE 6 7 3 4 1025.4 1025.4 0.0
30/03:30am 14.8 14.6 13.0 89 1.0 SW 6 6 3 3 1025.4 1025.4 0.0
30/03:00am 14.9 14.8 13.3 90 0.9 SSW 6 7 3 4 1025.4 1025.4 0.0
30/02:30am 14.7 14.9 12.9 89 1.0 SW 4 7 2 4 1025.1 1025.1 0.0
30/02:00am 15.0 16.0 13.2 89 1.0 CALM 0 0 0 0 1025.3 1025.3 0.0
30/01:30am 15.0 14.9 13.4 90 0.9 SW 6 11 3 6 1025.5 1025.5 0.0
30/01:00am 15.5 16.6 13.5 88 1.1 CALM 0 0 0 0 1025.9 1025.9 0.0
30/12:30am 15.3 14.7 13.5 89 1.0 WSW 9 11 5 6 1026.3 1026.3 0.0
30/12:00am 15.2 14.9 13.2 88 1.1 WSW 7 11 4 6 1026.4 1026.4 0.0
 
Date/Time
EST
Temp
°C
App
Temp
°C
Dew
Point
°C
Rel
Hum
%
Delta-T
°C
Wind Press
QNH
hPa
Press
MSL
hPa
Rain since
9am
mm
Dir  Spd
km/h
Gust
km/h
Spd
kts
Gust
kts
29/11:30pm 15.6 15.6 13.6 88 1.1 SW 6 9 3 5 1026.7 1026.7 0.0
29/11:00pm 15.6 15.4 13.6 88 1.1 WSW 7 11 4 6 1026.6 1026.6 0.0
29/10:30pm 15.6 15.4 13.6 88 1.1 WSW 7 11 4 6 1026.6 1026.6 0.0
29/10:00pm 16.0 15.5 13.8 87 1.2 WSW 9 13 5 7 1026.8 1026.8 0.0
29/09:30pm 15.9 15.7 13.7 87 1.2 W 7 9 4 5 1026.8 1026.8 0.0
29/09:00pm 18.7 17.3 12.2 66 3.6 NNE 11 17 6 9 1026.7 1026.7 0.0
29/08:30pm 19.0 17.2 12.0 64 3.9 NNE 13 15 7 8 1026.7 1026.7 0.0
29/08:00pm 19.3 17.6 12.3 64 3.9 NNE 13 15 7 8 1026.5 1026.5 0.0
29/07:30pm 19.0 17.7 12.5 66 3.6 NNE 11 15 6 8 1026.3 1026.3 0.0
29/07:00pm 18.6 17.3 12.4 67 3.4 NNE 11 17 6 9 1026.3 1026.3 0.0
29/06:30pm 19.3 17.6 12.6 65 3.8 NE 13 17 7 9 1026.0 1026.0 0.0
29/06:00pm 19.3 18.0 12.6 65 3.7 NNE 11 17 6 9 1025.6 1025.6 0.0
29/05:30pm 19.7 18.5 12.9 65 3.8 NE 11 17 6 9 1025.2 1025.2 0.0
29/05:00pm 19.7 18.9 14.1 70 3.2 ENE 11 15 6 8 1025.1 1025.1 0.0
29/04:30pm 20.0 18.7 13.7 67 3.6 NE 13 17 7 9 1024.9 1024.9 0.0
29/04:00pm 19.8 18.0 13.3 66 3.7 NE 15 20 8 11 1024.7 1024.7 0.0
29/03:30pm 20.8 19.1 13.5 63 4.2 NE 15 20 8 11 1024.6 1024.6 0.0
29/03:00pm 20.9 18.8 13.6 63 4.2 ENE 17 20 9 11 1024.6 1024.6 0.0
29/02:30pm 21.0 18.5 13.4 62 4.4 ENE 19 22 10 12 1024.5 1024.5 0.0
29/02:00pm 21.6 19.0 13.2 59 4.8 ENE 19 22 10 12 1024.3 1024.3 0.0
29/01:30pm 21.4 19.1 13.1 59 4.7 NE 17 22 9 12 1024.5 1024.5 0.0
29/01:00pm 20.9 18.9 12.8 60 4.6 NE 15 20 8 11 1024.6 1024.6 0.0
29/12:30pm 20.7 18.7 12.7 60 4.5 NE 15 20 8 11 1025.1 1025.1 0.0
29/12:00pm 20.6 18.2 12.8 61 4.4 ENE 17 20 9 11 1025.3 1025.3 0.0
29/11:30am 20.8 19.0 13.3 62 4.3 NE 15 20 8 11 1025.5 1025.5 0.0
29/11:00am 20.3 18.2 12.5 61 4.4 NE 15 20 8 11 1025.8 1025.8 0.0
29/10:30am 20.4 18.8 12.9 62 4.3 NE 13 19 7 10 1026.0 1026.0 0.0
29/10:00am 20.0 18.1 13.0 64 3.9 NE 15 17 8 9 1025.9 1025.9 0.0
29/09:30am 20.3 18.8 12.0 59 4.6 NNE 11 15 6 8 1025.9 1025.9 0.0
29/09:00am 19.5 19.5 12.3 63 4.0 WSW 4 9 2 5 1025.8 1025.8 0.0
29/08:30am 18.1 18.3 13.2 73 2.8 SSE 4 7 2 4 1025.8 1025.8 0.0
29/08:00am 16.3 16.2 13.2 82 1.7 SSE 6 7 3 4 1025.5 1025.5 0.0
29/07:30am 14.6 14.5 13.3 92 0.7 S 6 7 3 4 1025.3 1025.3 0.0
29/07:00am 12.6 13.3 12.1 97 0.3 CALM 0 0 0 0 1024.9 1024.9 0.0
29/06:30am 11.2 11.1 10.9 98 0.2 SW 2 6 1 3 1024.3 1024.3 0.0
29/06:14am 10.9 10.0 10.6 98 0.2 SW 6 7 3 4 1024.1 1024.1 0.0
29/06:00am 10.5 9.5 10.2 98 0.2 S 6 7 3 4 1023.8 1023.8 0.0
29/05:55am 10.5 9.5 10.2 98 0.2 S 6 7 3 4 1023.7 1023.7 0.0
29/05:35am 10.6 10.7 10.3 98 0.2 CALM 0 0 0 0 1023.5 1023.5 0.0
29/05:30am 10.7 10.5 10.4 98 0.2 SW 2 6 1 3 1023.5 1023.5 0.0
29/05:16am 10.4 10.0 9.9 97 0.3 SW 2 6 1 3 1023.4 1023.4 0.0
29/05:00am 10.8 10.6 10.5 98 0.2 SW 2 7 1 4 1023.1 1023.1 0.0
29/04:30am 10.3 9.0 9.8 97 0.3 WSW 7 7 4 4 1022.8 1022.8 0.0
29/04:00am 10.2 8.5 9.7 97 0.2 WSW 9 11 5 6 1022.8 1022.8 0.0
29/03:30am 10.5 8.8 10.0 97 0.3 WSW 9 11 5 6 1022.8 1022.8 0.0
29/03:00am 10.0 8.5 9.2 95 0.4 WSW 7 11 4 6 1022.8 1022.8 0.0
29/02:47am 10.7 9.6 10.1 96 0.3 WSW 6 9 3 5 1022.8 1022.8 0.0
29/02:30am 10.8 10.5 10.2 96 0.3 SW 2 7 1 4 1022.8 1022.8 0.0
29/02:25am 10.6 10.7 10.0 96 0.3 CALM 0 4 0 2 1022.9 1022.9 0.0
29/02:00am 10.6 9.3 9.8 95 0.4 WSW 7 9 4 5 1023.1 1023.1 0.0
29/01:30am 11.2 10.2 10.3 94 0.5 SW 6 7 3 4 1023.2 1023.2 0.0
29/01:00am 11.6 11.1 10.7 94 0.5 SW 4 9 2 5 1023.3 1023.3 0.0
29/12:30am 11.8 10.4 11.0 95 0.4 SW 9 11 5 6 1023.3 1023.3 0.0
29/12:00am 12.1 12.1 11.2 94 0.5 SW 2 6 1 3 1023.2 1023.2 0.0
 
Date/Time
EST
Temp
°C
App
Temp
°C
Dew
Point
°C
Rel
Hum
%
Delta-T
°C
Wind Press
QNH
hPa
Press
MSL
hPa
Rain since
9am
mm
Dir  Spd
km/h
Gust
km/h
Spd
kts
Gust
kts
28/11:30pm 12.2 12.2 11.3 94 0.5 SW 2 7 1 4 1023.1 1023.1 0.0
28/11:00pm 12.3 11.9 11.2 93 0.6 SW 4 7 2 4 1023.2 1023.2 0.0
28/10:30pm 12.6 12.3 11.5 93 0.6 WSW 4 7 2 4 1023.2 1023.2 0.0
28/10:00pm 12.6 11.8 11.2 91 0.7 WSW 6 7 3 4 1023.3 1023.3 0.0
28/09:30pm 12.7 11.7 11.1 90 0.8 WSW 7 9 4 5 1023.3 1023.3 0.0
28/09:00pm 13.1 13.3 11.7 91 0.7 SW 2 7 1 4 1023.2 1023.2 0.0
28/08:30pm 13.6 13.0 11.8 89 1.0 SW 6 7 3 4 1023.1 1023.1 0.0
28/08:00pm 14.0 14.2 12.0 88 1.1 SW 2 7 1 4 1022.8 1022.8 0.0
28/07:30pm 14.3 12.9 12.2 87 1.1 WSW 11 13 6 7 1022.6 1022.6 0.0
28/07:00pm 14.9 13.9 12.4 85 1.4 WSW 9 11 5 6 1022.5 1022.5 0.0
28/06:30pm 15.0 14.3 12.1 83 1.6 WSW 7 9 4 5 1022.2 1022.2 0.0
28/06:00pm 15.8 16.1 11.0 73 2.6 CALM 0 0 0 0 1021.9 1021.9 0.0
28/05:30pm 18.1 17.1 11.0 63 3.8 E 7 11 4 6 1021.8 1021.8 0.0
28/05:00pm 19.1 17.2 10.6 58 4.6 ENE 11 15 6 8 1021.5 1021.5 0.0
28/04:30pm 19.6 17.1 11.1 58 4.6 ENE 15 19 8 10 1021.1 1021.1 0.0
28/04:00pm 19.9 17.0 11.1 57 4.8 ENE 17 20 9 11 1020.8 1020.8 0.0
28/03:30pm 20.8 18.0 11.2 54 5.3 ENE 17 20 9 11 1020.9 1020.9 0.0
28/03:00pm 20.2 16.8 9.2 49 5.8 E 17 22 9 12 1021.0 1021.0 0.0
28/02:30pm 20.9 17.4 10.1 50 5.8 E 19 26 10 14 1020.9 1020.9 0.0
28/02:00pm 21.4 17.8 9.9 48 6.2 ESE 19 24 10 13 1021.0 1021.0 0.0
28/01:30pm 21.4 17.4 10.6 50 5.9 ESE 22 30 12 16 1021.0 1021.0 0.0
28/01:00pm 21.3 17.2 10.2 49 6.0 ESE 22 30 12 16 1021.3 1021.3 0.0
28/12:30pm 21.4 17.2 9.9 48 6.2 ESE 22 30 12 16 1021.8 1021.8 0.0
28/12:00pm 20.1 16.5 9.9 52 5.4 SE 19 26 10 14 1022.3 1022.3 0.0
28/11:30am 21.5 19.2 10.6 50 6.0 S 13 22 7 12 1022.9 1022.9 0.0
28/11:00am 20.8 18.0 10.0 50 5.8 SSW 15 22 8 12 1023.1 1023.1 0.0
28/10:30am 20.4 16.9 10.2 52 5.5 SSW 19 28 10 15 1023.3 1023.3 0.0
28/10:00am 19.9 16.4 10.3 54 5.2 SSW 19 26 10 14 1023.4 1023.4 0.0
28/09:30am 19.3 15.5 9.2 52 5.3 SSW 19 26 10 14 1023.5 1023.5 0.0
28/09:00am 18.1 13.9 8.4 53 5.0 SSW 20 30 11 16 1023.6 1023.6 0.2
28/08:30am 17.6 13.2 7.6 52 5.0 SSW 20 32 11 17 1023.5 1023.5 0.2
28/08:00am 17.2 13.0 8.1 55 4.6 SSW 20 30 11 16 1023.3 1023.3 0.2
28/07:30am 16.2 11.8 7.2 55 4.5 SSW 20 28 11 15 1022.9 1022.9 0.2
28/07:00am 15.1 11.5 6.7 57 4.1 SSW 15 22 8 12 1022.6 1022.6 0.2
28/06:30am 14.3 10.6 6.2 58 3.9 SW 15 24 8 13 1022.2 1022.2 0.2
28/06:00am 13.2 9.5 6.5 64 3.2 SW 15 20 8 11 1021.9 1021.9 0.2
28/05:30am 12.5 10.0 6.5 67 2.9 WSW 9 13 5 7 1021.7 1021.7 0.2

Latest Capital City Observations: Canberra | Sydney | Melbourne | Brisbane | Adelaide | Perth | Hobart | Darwin

Other Formats:

Comma delimited format used in spreadsheet applications
http://www.bom.gov.au/fwo/IDQ60901/IDQ60901.94592.axf

JavaScript Object Notation format (JSON) in row-major order
http://www.bom.gov.au/fwo/IDQ60901/IDQ60901.94592.json